Time;durP1;ratioP1;P1;durP2;ratioP2;P2;SDS_P1;SDS_P2;PMS_P1;PMS_P2;Temp;Humidity;BMP_temperature;BMP_pressure;BME280_temperature;BME280_humidity;BME280_pressure;Samples;Min_cycle;Max_cycle;Signal;HPM_P1;HPM_P2
2022/06/21 00:02:17;;;;;;;7.50;2.53;;;;;;;;;;4997565;28;20315;-61
2022/06/21 00:04:43;;;;;;;8.95;2.88;;;;;;;;;;4982544;28;20336;-62
2022/06/21 00:07:11;;;;;;;6.28;2.60;;;;;;;;;;4997313;28;20719;-61
2022/06/21 00:09:36;;;;;;;7.18;2.60;;;;;;;;;;5007597;28;20224;-62
2022/06/21 00:12:01;;;;;;;9.77;2.90;;;;;;;;;;4975684;28;20224;-61
2022/06/21 00:14:27;;;;;;;6.75;3.00;;;;;;;;;;4974904;28;20209;-62
2022/06/21 00:16:52;;;;;;;7.15;2.90;;;;;;;;;;4975037;28;20236;-61
2022/06/21 00:19:19;;;;;;;8.98;2.70;;;;;;;;;;4980750;28;20228;-61
2022/06/21 00:21:45;;;;;;;6.45;2.50;;;;;;;;;;4992792;28;20208;-61
2022/06/21 00:24:10;;;;;;;9.38;2.58;;;;;;;;;;4997338;28;20213;-61
2022/06/21 00:26:36;;;;;;;6.55;2.75;;;;;;;;;;4981619;28;20216;-61
2022/06/21 00:29:01;;;;;;;9.13;2.78;;;;;;;;;;4981773;28;20215;-60
2022/06/21 00:31:30;;;;;;;6.18;2.42;;;;;;;;;;4982209;28;20220;-61
2022/06/21 00:33:56;;;;;;;9.60;2.97;;;;;;;;;;4981834;28;20213;-62
2022/06/21 00:36:23;;;;;;;6.85;2.70;;;;;;;;;;4989485;28;20223;-62
2022/06/21 00:38:50;;;;;;;8.85;2.40;;;;;;;;;;4991847;28;20575;-62
2022/06/21 00:41:15;;;;;;;10.93;2.85;;;;;;;;;;4980864;28;20633;-62
2022/06/21 00:43:43;;;;;;;8.23;2.83;;;;;;;;;;5005495;28;20208;-62
2022/06/21 00:46:16;;;;;;;8.07;2.80;;;;;;;;;;4980950;28;20225;-61
2022/06/21 00:48:42;;;;;;;7.22;2.80;;;;;;;;;;4983269;28;20209;-62
2022/06/21 00:51:08;;;;;;;9.52;2.85;;;;;;;;;;4982134;28;20276;-62
2022/06/21 00:53:35;;;;;;;6.78;2.83;;;;;;;;;;4996453;28;20224;-62
2022/06/21 00:56:04;;;;;;;9.68;3.10;;;;;;;;;;5006751;28;20217;-60
2022/06/21 00:58:30;;;;;;;7.00;3.00;;;;;;;;;;4993197;28;20500;-61
2022/06/21 01:01:03;;;;;;;8.90;2.97;;;;;;;;;;4973458;28;20565;-61
2022/06/21 01:03:31;;;;;;;7.85;2.70;;;;;;;;;;4980744;28;21171;-61
2022/06/21 01:05:56;;;;;;;10.18;2.88;;;;;;;;;;5001346;28;20251;-61
2022/06/21 01:08:24;;;;;;;8.95;3.30;;;;;;;;;;5014985;28;20707;-62
2022/06/21 01:10:51;;;;;;;6.22;2.53;;;;;;;;;;4997847;28;20668;-61
2022/06/21 01:13:17;;;;;;;7.75;2.83;;;;;;;;;;4997346;28;20864;-62
2022/06/21 01:15:44;;;;;;;7.72;2.63;;;;;;;;;;4988551;28;20225;-62
2022/06/21 01:18:09;;;;;;;9.45;2.70;;;;;;;;;;4994172;28;20209;-61
2022/06/21 01:20:35;;;;;;;6.28;2.50;;;;;;;;;;4974791;28;20870;-61
2022/06/21 01:23:14;;;;;;;7.82;2.83;;;;;;;;;;4988675;28;20221;-60
2022/06/21 01:25:49;;;;;;;7.95;2.88;;;;;;;;;;4995757;28;20209;-61
2022/06/21 01:28:14;;;;;;;6.70;2.70;;;;;;;;;;4983282;28;20220;-61
2022/06/21 01:30:41;;;;;;;9.40;2.70;;;;;;;;;;4982628;28;20209;-61
2022/06/21 01:33:06;;;;;;;6.60;2.58;;;;;;;;;;4997373;28;20217;-61
2022/06/21 01:35:42;;;;;;;7.82;2.78;;;;;;;;;;4999662;28;20224;-61
2022/06/21 01:38:09;;;;;;;6.93;2.80;;;;;;;;;;5003577;28;20642;-61
2022/06/21 01:40:35;;;;;;;5.88;2.55;;;;;;;;;;5002676;28;20225;-61
2022/06/21 01:43:02;;;;;;;8.43;2.90;;;;;;;;;;4977602;28;20221;-62
2022/06/21 01:45:29;;;;;;;7.40;2.65;;;;;;;;;;4977559;28;20217;-62
2022/06/21 01:48:00;;;;;;;7.93;2.90;;;;;;;;;;5002325;28;20213;-62
2022/06/21 01:50:25;;;;;;;6.85;2.45;;;;;;;;;;4989095;28;20210;-62
2022/06/21 01:52:51;;;;;;;8.18;2.88;;;;;;;;;;4985549;28;20275;-63
2022/06/21 01:55:18;;;;;;;8.57;2.50;;;;;;;;;;4984644;28;20751;-62
2022/06/21 01:57:44;;;;;;;7.20;2.75;;;;;;;;;;4984345;28;21117;-62
2022/06/21 02:00:09;;;;;;;10.35;3.05;;;;;;;;;;4985118;28;20233;-62
2022/06/21 02:02:37;;;;;;;7.30;2.70;;;;;;;;;;4984978;28;20238;-62
2022/06/21 02:05:03;;;;;;;6.05;2.53;;;;;;;;;;4994928;28;20221;-61
2022/06/21 02:07:30;;;;;;;7.75;2.88;;;;;;;;;;4976792;28;20213;-62
2022/06/21 02:10:01;;;;;;;6.47;2.70;;;;;;;;;;4992278;28;20311;-62
2022/06/21 02:12:26;;;;;;;6.60;2.63;;;;;;;;;;4999409;28;20267;-62
2022/06/21 02:14:52;;;;;;;6.43;2.85;;;;;;;;;;5000103;28;20240;-62
2022/06/21 02:17:18;;;;;;;7.47;2.65;;;;;;;;;;5017181;28;20221;-62
2022/06/21 02:19:43;;;;;;;6.13;2.47;;;;;;;;;;4985798;28;20619;-62
2022/06/21 02:22:11;;;;;;;7.60;2.70;;;;;;;;;;4984265;28;20232;-62
2022/06/21 02:24:36;;;;;;;8.18;2.70;;;;;;;;;;4998939;28;20212;-62
2022/06/21 02:27:02;;;;;;;6.07;2.60;;;;;;;;;;4979585;28;20221;-61
2022/06/21 02:29:28;;;;;;;6.90;2.33;;;;;;;;;;5006265;28;20924;-62
2022/06/21 02:31:53;;;;;;;7.22;2.50;;;;;;;;;;4991035;28;20217;-62
2022/06/21 02:34:20;;;;;;;8.38;2.83;;;;;;;;;;4981252;28;20217;-62
2022/06/21 02:36:49;;;;;;;7.47;2.67;;;;;;;;;;4998939;28;20239;-62
2022/06/21 02:39:15;;;;;;;6.93;2.88;;;;;;;;;;5001357;28;20221;-62
2022/06/21 02:41:41;;;;;;;5.85;2.75;;;;;;;;;;5002081;28;20223;-62
2022/06/21 02:44:16;;;;;;;6.20;2.60;;;;;;;;;;4993454;28;20209;-62
2022/06/21 02:46:43;;;;;;;5.45;2.60;;;;;;;;;;4998167;28;20248;-62
2022/06/21 02:49:09;;;;;;;6.60;2.80;;;;;;;;;;5009004;28;20799;-62
2022/06/21 02:51:35;;;;;;;5.40;2.50;;;;;;;;;;4976532;28;20217;-62
2022/06/21 02:54:02;;;;;;;7.20;2.50;;;;;;;;;;4990030;28;20689;-60
2022/06/21 02:56:30;;;;;;;6.93;2.60;;;;;;;;;;4980091;28;20205;-62
2022/06/21 02:58:55;;;;;;;5.70;2.80;;;;;;;;;;5017562;28;20274;-62
2022/06/21 03:01:24;;;;;;;6.03;2.65;;;;;;;;;;5001818;28;20598;-61
2022/06/21 03:03:49;;;;;;;7.03;2.42;;;;;;;;;;5003140;28;20247;-62
2022/06/21 03:06:15;;;;;;;5.75;2.60;;;;;;;;;;5002509;28;20217;-62
2022/06/21 03:08:46;;;;;;;7.43;2.55;;;;;;;;;;5002830;28;20251;-62
2022/06/21 03:11:11;;;;;;;6.40;2.50;;;;;;;;;;5000334;28;20304;-62
2022/06/21 03:13:36;;;;;;;9.02;2.80;;;;;;;;;;4980983;28;20201;-62
2022/06/21 03:16:03;;;;;;;7.22;2.80;;;;;;;;;;4975185;28;20243;-61
2022/06/21 03:18:30;;;;;;;7.70;2.88;;;;;;;;;;4991668;28;20336;-62
2022/06/21 03:20:56;;;;;;;7.03;3.28;;;;;;;;;;4997301;28;20236;-62
2022/06/21 03:23:21;;;;;;;8.20;2.75;;;;;;;;;;4983022;28;20238;-61
2022/06/21 03:25:49;;;;;;;8.18;3.10;;;;;;;;;;4983135;28;20205;-61
2022/06/21 03:28:19;;;;;;;7.38;2.85;;;;;;;;;;4981706;28;20220;-61
2022/06/21 03:30:45;;;;;;;6.68;2.90;;;;;;;;;;5011283;28;20213;-61
2022/06/21 03:33:10;;;;;;;8.15;3.00;;;;;;;;;;4982553;28;20240;-60
2022/06/21 03:35:36;;;;;;;7.75;2.70;;;;;;;;;;4994131;28;20215;-61
2022/06/21 03:38:01;;;;;;;9.02;3.08;;;;;;;;;;4994731;28;20209;-60
2022/06/21 03:43:14;;;;;;;7.30;2.90;;;;;;;;;;4986516;28;20283;-61
2022/06/21 03:45:40;;;;;;;8.07;3.00;;;;;;;;;;5016889;28;20204;-61
2022/06/21 03:48:09;;;;;;;10.52;2.97;;;;;;;;;;5001654;28;20220;-61
2022/06/21 03:50:36;;;;;;;9.65;2.78;;;;;;;;;;5001453;28;20798;-61
2022/06/21 03:53:04;;;;;;;7.88;3.00;;;;;;;;;;5016943;28;20224;-60
2022/06/21 03:55:32;;;;;;;8.15;2.97;;;;;;;;;;5017231;28;20212;-60
2022/06/21 03:57:58;;;;;;;36.05;5.30;;;;;;;;;;4994109;28;20507;-61
2022/06/21 04:00:23;;;;;;;7.13;3.00;;;;;;;;;;4993694;28;20320;-64
2022/06/21 04:02:52;;;;;;;6.97;2.78;;;;;;;;;;5008397;28;20224;-67
2022/06/21 04:05:19;;;;;;;7.40;2.78;;;;;;;;;;4991536;28;20743;-63
2022/06/21 04:07:49;;;;;;;8.63;3.00;;;;;;;;;;4983973;28;20213;-62
2022/06/21 04:10:16;;;;;;;9.10;3.00;;;;;;;;;;4996585;28;20216;-62
2022/06/21 04:12:43;;;;;;;9.63;3.00;;;;;;;;;;4998863;28;20803;-62
2022/06/21 04:15:11;;;;;;;7.15;2.85;;;;;;;;;;4997943;28;20560;-63
2022/06/21 04:17:37;;;;;;;6.53;2.78;;;;;;;;;;4996856;28;20222;-62
2022/06/21 04:20:04;;;;;;;7.93;2.95;;;;;;;;;;4993462;28;20224;-63
2022/06/21 04:22:31;;;;;;;7.78;3.03;;;;;;;;;;4975810;28;20213;-63
2022/06/21 04:25:02;;;;;;;7.35;2.72;;;;;;;;;;4974796;28;20220;-64
2022/06/21 04:27:27;;;;;;;5.20;2.58;;;;;;;;;;4994864;28;20205;-62
2022/06/21 04:29:55;;;;;;;5.47;2.42;;;;;;;;;;4982698;28;20676;-63
2022/06/21 04:32:22;;;;;;;7.50;2.35;;;;;;;;;;4982256;28;20791;-63
2022/06/21 04:34:49;;;;;;;6.15;2.50;;;;;;;;;;4982674;28;20232;-62
2022/06/21 04:37:16;;;;;;;6.65;2.47;;;;;;;;;;4982642;28;20582;-63
2022/06/21 04:39:45;;;;;;;5.05;2.42;;;;;;;;;;4997116;28;20209;-63
2022/06/21 04:42:16;;;;;;;8.13;2.38;;;;;;;;;;4990745;28;20302;-65
2022/06/21 04:44:43;;;;;;;7.93;2.40;;;;;;;;;;4975879;28;20235;-64
2022/06/21 04:47:15;;;;;;;8.18;2.20;;;;;;;;;;4988238;28;20751;-65
2022/06/21 04:49:48;;;;;;;6.15;2.30;;;;;;;;;;4978054;28;21021;-66
2022/06/21 04:52:25;;;;;;;7.32;2.42;;;;;;;;;;4995884;28;20845;-64
2022/06/21 04:54:50;;;;;;;5.55;2.20;;;;;;;;;;4985297;28;20216;-66
2022/06/21 04:57:22;;;;;;;11.43;2.90;;;;;;;;;;4996857;28;20225;-65
2022/06/21 04:59:49;;;;;;;8.30;2.17;;;;;;;;;;5015050;28;20212;-65
2022/06/21 05:02:21;;;;;;;6.82;2.53;;;;;;;;;;5000537;28;20323;-66
2022/06/21 05:04:47;;;;;;;7.50;2.50;;;;;;;;;;5013149;28;20339;-66
2022/06/21 05:07:14;;;;;;;8.10;2.28;;;;;;;;;;4993219;28;20311;-66
2022/06/21 05:09:39;;;;;;;10.10;2.70;;;;;;;;;;4997306;28;20231;-66
2022/06/21 05:12:05;;;;;;;4.93;2.40;;;;;;;;;;4998680;28;20698;-66
2022/06/21 05:14:33;;;;;;;8.38;2.70;;;;;;;;;;4985803;28;20213;-67
2022/06/21 05:16:58;;;;;;;7.78;2.80;;;;;;;;;;5004400;28;20223;-67
2022/06/21 05:19:27;;;;;;;8.43;3.05;;;;;;;;;;5004458;28;20229;-67
2022/06/21 05:21:52;;;;;;;13.77;3.20;;;;;;;;;;5004959;28;20208;-68
2022/06/21 05:24:18;;;;;;;7.82;2.58;;;;;;;;;;5019695;28;20679;-68
2022/06/21 05:26:46;;;;;;;8.63;2.90;;;;;;;;;;5004085;28;20260;-67
2022/06/21 05:29:12;;;;;;;8.77;2.20;;;;;;;;;;4996539;28;20240;-67
2022/06/21 05:31:39;;;;;;;9.95;2.38;;;;;;;;;;4999738;28;20211;-68
2022/06/21 05:34:06;;;;;;;9.50;2.40;;;;;;;;;;4996299;28;20501;-67
2022/06/21 05:36:32;;;;;;;8.48;2.30;;;;;;;;;;5019849;28;20621;-69
2022/06/21 05:38:58;;;;;;;8.68;2.30;;;;;;;;;;5004873;28;20251;-68
2022/06/21 05:41:31;;;;;;;9.07;2.45;;;;;;;;;;5002767;28;20485;-68
2022/06/21 05:43:58;;;;;;;7.00;2.20;;;;;;;;;;4996622;28;20212;-68
2022/06/21 05:46:24;;;;;;;7.45;2.45;;;;;;;;;;5018943;28;20216;-67
2022/06/21 05:48:52;;;;;;;12.18;2.85;;;;;;;;;;5019061;28;20216;-68
2022/06/21 05:51:24;;;;;;;8.70;2.60;;;;;;;;;;4997288;28;20216;-67
2022/06/21 05:53:51;;;;;;;9.50;2.97;;;;;;;;;;4997146;28;20204;-68
2022/06/21 05:56:19;;;;;;;10.48;2.83;;;;;;;;;;4995755;28;20208;-67
2022/06/21 05:58:47;;;;;;;11.88;3.40;;;;;;;;;;5003470;28;20675;-68
2022/06/21 06:01:18;;;;;;;8.85;2.70;;;;;;;;;;5003896;28;20269;-67
2022/06/21 06:03:45;;;;;;;9.43;2.60;;;;;;;;;;5018102;28;20224;-68
2022/06/21 06:06:11;;;;;;;8.55;3.05;;;;;;;;;;5004154;28;20224;-67
2022/06/21 06:08:41;;;;;;;8.30;2.30;;;;;;;;;;5019316;28;20240;-67
2022/06/21 06:11:12;;;;;;;7.50;2.00;;;;;;;;;;5018457;28;20217;-67
2022/06/21 06:13:38;;;;;;;12.07;2.40;;;;;;;;;;4999032;28;20232;-68
2022/06/21 06:16:06;;;;;;;9.10;2.72;;;;;;;;;;4981142;28;20223;-67
2022/06/21 06:18:44;;;;;;;11.65;2.72;;;;;;;;;;4995239;28;20455;-68
2022/06/21 06:21:23;;;;;;;7.20;2.55;;;;;;;;;;5001589;28;20243;-68
2022/06/21 06:23:48;;;;;;;11.10;3.25;;;;;;;;;;5018107;28;20216;-68
2022/06/21 06:26:14;;;;;;;8.20;2.95;;;;;;;;;;5003428;28;20294;-68
2022/06/21 06:28:44;;;;;;;10.45;2.92;;;;;;;;;;5004191;28;20240;-68
2022/06/21 06:31:12;;;;;;;9.27;2.88;;;;;;;;;;4994579;28;20264;-68
2022/06/21 06:33:39;;;;;;;11.35;3.10;;;;;;;;;;5018702;28;20236;-68
2022/06/21 06:36:07;;;;;;;8.52;3.58;;;;;;;;;;4997684;28;20216;-68
2022/06/21 06:38:32;;;;;;;7.97;3.33;;;;;;;;;;4995166;28;20216;-68
2022/06/21 06:41:10;;;;;;;9.80;3.00;;;;;;;;;;4995264;28;20228;-68
2022/06/21 06:43:44;;;;;;;9.80;2.80;;;;;;;;;;4983753;28;20221;-68
2022/06/21 06:46:10;;;;;;;11.48;3.08;;;;;;;;;;5002669;28;20707;-68
2022/06/21 06:48:36;;;;;;;11.65;2.83;;;;;;;;;;5018611;28;20665;-68
2022/06/21 06:51:14;;;;;;;8.60;2.60;;;;;;;;;;5003698;28;20308;-66
2022/06/21 06:53:40;;;;;;;9.70;3.20;;;;;;;;;;5002601;28;20212;-68
2022/06/21 06:56:09;;;;;;;8.32;2.00;;;;;;;;;;5018015;28;20743;-67
2022/06/21 06:58:36;;;;;;;8.43;2.10;;;;;;;;;;4997689;28;20740;-68
2022/06/21 07:01:03;;;;;;;12.32;2.60;;;;;;;;;;5000910;28;20287;-66
2022/06/21 07:03:31;;;;;;;8.88;2.28;;;;;;;;;;5012757;28;20287;-68
2022/06/21 07:06:07;;;;;;;6.50;2.30;;;;;;;;;;4992320;28;20213;-67
2022/06/21 07:08:35;;;;;;;7.43;2.00;;;;;;;;;;4992713;28;20275;-68
2022/06/21 07:11:02;;;;;;;7.68;2.40;;;;;;;;;;4991704;28;20206;-66
2022/06/21 07:13:27;;;;;;;11.40;2.40;;;;;;;;;;5003900;28;20212;-67
2022/06/21 07:15:54;;;;;;;7.65;2.00;;;;;;;;;;5011448;28;20213;-67
2022/06/21 07:18:25;;;;;;;10.13;1.95;;;;;;;;;;5010861;28;20235;-67
2022/06/21 07:20:50;;;;;;;8.25;2.53;;;;;;;;;;5010315;28;20221;-67
2022/06/21 07:23:17;;;;;;;7.97;2.15;;;;;;;;;;5012301;28;20219;-67
2022/06/21 07:25:43;;;;;;;7.70;1.90;;;;;;;;;;5012586;28;20274;-67
2022/06/21 07:28:41;;;;;;;8.55;1.98;;;;;;;;;;5011750;28;20205;-67
2022/06/21 07:31:15;;;;;;;5.55;1.85;;;;;;;;;;5010931;28;20209;-67
2022/06/21 07:33:41;;;;;;;7.25;1.80;;;;;;;;;;5012072;28;20222;-67
2022/06/21 07:36:10;;;;;;;8.48;1.90;;;;;;;;;;5010885;28;20204;-67
2022/06/21 07:38:39;;;;;;;6.95;1.95;;;;;;;;;;5011286;28;20231;-67
2022/06/21 07:41:07;;;;;;;7.78;1.60;;;;;;;;;;5010962;28;20225;-67
2022/06/21 07:43:35;;;;;;;7.72;1.95;;;;;;;;;;5010887;28;20212;-68
2022/06/21 07:46:01;;;;;;;8.07;2.05;;;;;;;;;;5012031;28;20242;-67
2022/06/21 07:48:29;;;;;;;8.05;1.80;;;;;;;;;;5011305;28;20212;-67
2022/06/21 07:50:56;;;;;;;5.20;1.52;;;;;;;;;;5010894;28;20224;-68
2022/06/21 07:53:23;;;;;;;6.18;1.40;;;;;;;;;;4994271;28;20562;-67
2022/06/21 07:55:50;;;;;;;9.38;1.80;;;;;;;;;;5011324;28;20204;-67
2022/06/21 07:58:24;;;;;;;8.15;1.50;;;;;;;;;;5010116;28;20216;-68
2022/06/21 08:09:08;;;;;;;8.00;1.80;;;;;;;;;;5010529;28;20215;-67
2022/06/21 08:11:34;;;;;;;6.82;1.50;;;;;;;;;;5031618;28;20219;-68
2022/06/21 08:13:59;;;;;;;7.68;1.65;;;;;;;;;;5017081;28;20216;-68
2022/06/21 08:16:26;;;;;;;6.70;1.48;;;;;;;;;;5010845;28;20250;-67
2022/06/21 08:18:53;;;;;;;5.55;1.33;;;;;;;;;;5010317;28;20342;-67
2022/06/21 08:21:20;;;;;;;5.47;1.38;;;;;;;;;;5009802;28;20224;-68
2022/06/21 08:23:49;;;;;;;5.70;1.30;;;;;;;;;;5009590;28;20667;-67
2022/06/21 08:26:17;;;;;;;3.80;1.27;;;;;;;;;;5010072;28;20310;-67
2022/06/21 08:28:45;;;;;;;4.43;1.52;;;;;;;;;;5010627;28;20208;-67
2022/06/21 08:31:12;;;;;;;5.35;1.50;;;;;;;;;;5009274;28;20208;-67
2022/06/21 08:33:39;;;;;;;6.82;1.48;;;;;;;;;;5010310;28;20214;-67
2022/06/21 08:36:06;;;;;;;6.57;1.98;;;;;;;;;;5011037;28;20270;-66
2022/06/21 08:38:33;;;;;;;3.92;1.50;;;;;;;;;;5009579;28;20596;-68
2022/06/21 08:40:59;;;;;;;4.63;1.50;;;;;;;;;;5010177;28;20602;-66
2022/06/21 08:43:26;;;;;;;5.60;1.50;;;;;;;;;;5009247;28;20263;-67
2022/06/21 08:45:55;;;;;;;6.18;1.63;;;;;;;;;;4995303;28;20240;-67
2022/06/21 08:48:39;;;;;;;4.30;1.45;;;;;;;;;;4993967;28;20237;-67
2022/06/21 08:51:17;;;;;;;6.20;1.60;;;;;;;;;;4994670;28;20217;-66
2022/06/21 08:53:45;;;;;;;4.32;1.40;;;;;;;;;;4996049;28;20343;-67
2022/06/21 08:56:13;;;;;;;7.93;1.60;;;;;;;;;;4993967;28;20300;-66
2022/06/21 08:58:57;;;;;;;4.55;1.50;;;;;;;;;;4993380;28;20549;-68
2022/06/21 09:01:25;;;;;;;5.20;1.40;;;;;;;;;;4995129;28;20735;-66
2022/06/21 09:03:53;;;;;;;6.32;1.50;;;;;;;;;;4994565;28;20352;-67
2022/06/21 09:06:34;;;;;;;6.40;1.67;;;;;;;;;;4994621;28;20295;-68
2022/06/21 09:09:04;;;;;;;7.60;1.55;;;;;;;;;;4994092;28;20644;-67
2022/06/21 09:11:33;;;;;;;3.92;1.40;;;;;;;;;;5001810;28;20236;-64
2022/06/21 09:14:02;;;;;;;4.75;1.40;;;;;;;;;;5010475;28;20458;-64
2022/06/21 09:16:30;;;;;;;4.70;1.40;;;;;;;;;;5011447;28;20568;-65
2022/06/21 09:19:05;;;;;;;3.90;1.30;;;;;;;;;;4994288;28;20236;-65
2022/06/21 09:21:35;;;;;;;8.63;1.45;;;;;;;;;;5009759;28;20684;-64
2022/06/21 09:24:02;;;;;;;3.78;1.23;;;;;;;;;;4993313;28;20217;-64
2022/06/21 09:26:38;;;;;;;5.68;1.33;;;;;;;;;;4994324;28;20597;-64
2022/06/21 09:29:12;;;;;;;3.97;1.20;;;;;;;;;;4993765;28;20690;-64
2022/06/21 09:32:02;;;;;;;6.95;1.40;;;;;;;;;;5000348;28;20208;-65
2022/06/21 09:34:29;;;;;;;4.10;1.20;;;;;;;;;;5013310;28;20680;-65
2022/06/21 09:36:59;;;;;;;5.22;1.30;;;;;;;;;;5013295;28;20241;-64
2022/06/21 09:39:30;;;;;;;4.60;1.25;;;;;;;;;;5012906;28;20587;-65
2022/06/21 09:41:55;;;;;;;5.55;1.67;;;;;;;;;;5012541;28;20699;-65
2022/06/21 09:44:27;;;;;;;4.57;1.48;;;;;;;;;;5003095;28;20217;-64
2022/06/21 09:46:55;;;;;;;2.53;0.98;;;;;;;;;;4994836;28;20213;-65
2022/06/21 09:49:40;;;;;;;3.22;1.48;;;;;;;;;;4993641;28;20224;-64
2022/06/21 09:52:10;;;;;;;3.30;1.00;;;;;;;;;;4993499;28;20209;-64
2022/06/21 09:54:38;;;;;;;4.10;1.08;;;;;;;;;;4992437;28;20258;-64
2022/06/21 09:57:09;;;;;;;2.45;1.02;;;;;;;;;;4992998;28;20216;-64
2022/06/21 09:59:44;;;;;;;4.15;1.23;;;;;;;;;;4994492;28;20382;-64
2022/06/21 10:02:15;;;;;;;6.93;1.10;;;;;;;;;;4992270;28;20228;-64
2022/06/21 10:04:41;;;;;;;5.97;1.67;;;;;;;;;;4994784;28;20240;-64
2022/06/21 10:07:11;;;;;;;3.83;1.23;;;;;;;;;;4992940;28;20217;-64
2022/06/21 10:09:43;;;;;;;4.85;1.30;;;;;;;;;;4992098;28;20312;-65
2022/06/21 10:12:15;;;;;;;7.00;1.30;;;;;;;;;;4994960;28;20233;-64
2022/06/21 10:14:53;;;;;;;6.28;1.10;;;;;;;;;;4999037;28;20243;-64
2022/06/21 10:17:18;;;;;;;3.92;1.00;;;;;;;;;;4992207;28;20228;-64
2022/06/21 10:19:57;;;;;;;3.75;1.10;;;;;;;;;;4994198;28;20583;-64
2022/06/21 10:22:28;;;;;;;4.88;0.90;;;;;;;;;;4993626;28;20216;-64
2022/06/21 10:24:53;;;;;;;3.78;1.08;;;;;;;;;;4992329;28;20209;-64
2022/06/21 10:27:40;;;;;;;6.55;1.00;;;;;;;;;;4994030;28;20220;-64
2022/06/21 10:30:12;;;;;;;2.50;0.70;;;;;;;;;;4991697;28;20287;-64
2022/06/21 10:32:37;;;;;;;2.75;0.80;;;;;;;;;;5005733;28;20204;-64
2022/06/21 10:35:12;;;;;;;2.80;0.82;;;;;;;;;;5013081;28;20537;-64
2022/06/21 10:37:57;;;;;;;3.13;0.73;;;;;;;;;;5012861;28;20287;-64
2022/06/21 10:40:34;;;;;;;2.72;0.93;;;;;;;;;;5011794;28;20231;-64
2022/06/21 10:43:04;;;;;;;2.67;0.80;;;;;;;;;;5013132;28;20331;-64
2022/06/21 10:45:37;;;;;;;3.80;0.80;;;;;;;;;;5000251;28;20217;-64
2022/06/21 10:48:03;;;;;;;5.70;1.00;;;;;;;;;;4992055;28;20240;-63
2022/06/21 10:50:43;;;;;;;2.60;0.80;;;;;;;;;;4994049;28;20272;-64
2022/06/21 10:53:17;;;;;;;1.05;0.68;;;;;;;;;;4992176;28;20299;-64
2022/06/21 10:55:46;;;;;;;5.63;1.05;;;;;;;;;;4993356;28;20208;-63
2022/06/21 10:58:29;;;;;;;2.70;0.70;;;;;;;;;;4992105;28;20228;-63
2022/06/21 11:03:56;;;;;;;3.38;1.00;;;;;;;;;;4998804;28;20236;-64
2022/06/21 11:06:40;;;;;;;3.85;0.90;;;;;;;;;;4990233;28;20287;-64
2022/06/21 11:09:08;;;;;;;3.15;1.00;;;;;;;;;;4992919;28;20213;-64
2022/06/21 11:11:33;;;;;;;2.78;0.80;;;;;;;;;;4992097;28;20726;-64
2022/06/21 11:14:32;;;;;;;2.65;0.75;;;;;;;;;;5008502;28;20217;-64
2022/06/21 11:17:09;;;;;;;3.30;0.85;;;;;;;;;;4995374;28;20217;-64
2022/06/21 11:19:54;;;;;;;2.58;0.90;;;;;;;;;;4997564;28;20213;-64
2022/06/21 11:22:30;;;;;;;2.92;0.70;;;;;;;;;;4992903;28;20217;-64
2022/06/21 11:25:15;;;;;;;2.83;1.05;;;;;;;;;;4991516;28;20220;-64
2022/06/21 11:27:45;;;;;;;2.75;0.80;;;;;;;;;;5006089;28;20217;-64
2022/06/21 11:30:18;;;;;;;5.20;0.90;;;;;;;;;;4992477;28;20266;-64
2022/06/21 11:32:48;;;;;;;5.78;1.15;;;;;;;;;;5006027;28;20278;-64
2022/06/21 11:35:26;;;;;;;5.43;1.00;;;;;;;;;;5012091;28;20216;-63
2022/06/21 11:37:54;;;;;;;4.15;1.20;;;;;;;;;;5012201;28;20267;-64
2022/06/21 11:40:25;;;;;;;3.63;1.05;;;;;;;;;;5011113;28;20245;-64
2022/06/21 11:42:52;;;;;;;2.63;0.80;;;;;;;;;;5011239;28;20270;-64
2022/06/21 11:45:22;;;;;;;2.60;0.90;;;;;;;;;;4992073;28;20228;-63
2022/06/21 11:47:49;;;;;;;3.30;0.57;;;;;;;;;;4990544;28;20680;-64
2022/06/21 11:50:16;;;;;;;4.03;0.90;;;;;;;;;;4992011;28;20225;-63
2022/06/21 11:52:50;;;;;;;5.15;0.70;;;;;;;;;;4991069;28;20263;-63
2022/06/21 11:55:18;;;;;;;3.95;0.68;;;;;;;;;;4991629;28;20707;-64
2022/06/21 11:57:46;;;;;;;1.92;0.50;;;;;;;;;;4992795;28;20209;-64
2022/06/21 12:00:18;;;;;;;1.90;0.52;;;;;;;;;;4991627;28;20588;-64
2022/06/21 12:02:47;;;;;;;3.70;0.82;;;;;;;;;;4991498;28;20628;-64
2022/06/21 12:05:20;;;;;;;2.67;0.70;;;;;;;;;;4991757;28;20667;-64
2022/06/21 12:07:48;;;;;;;1.45;0.60;;;;;;;;;;4992528;28;20212;-64
2022/06/21 12:10:15;;;;;;;5.30;1.35;;;;;;;;;;4991387;28;20369;-64
2022/06/21 12:12:44;;;;;;;2.33;0.50;;;;;;;;;;4996121;28;20232;-64
2022/06/21 12:15:25;;;;;;;4.18;0.70;;;;;;;;;;4991639;28;20210;-64
2022/06/21 12:17:51;;;;;;;3.28;0.70;;;;;;;;;;4989978;28;20702;-64
2022/06/21 12:20:22;;;;;;;3.20;0.68;;;;;;;;;;4991753;28;20591;-64
2022/06/21 12:22:49;;;;;;;2.63;0.73;;;;;;;;;;4990449;28;20197;-64
2022/06/21 12:25:16;;;;;;;2.42;0.60;;;;;;;;;;4990205;28;20224;-64
2022/06/21 12:27:41;;;;;;;2.67;0.70;;;;;;;;;;4991829;28;20220;-64
2022/06/21 12:30:13;;;;;;;3.17;0.77;;;;;;;;;;4990600;28;20213;-64
2022/06/21 12:32:38;;;;;;;3.03;0.77;;;;;;;;;;5003938;28;20585;-63
2022/06/21 12:35:07;;;;;;;4.20;0.85;;;;;;;;;;5010123;28;20213;-64
2022/06/21 12:37:39;;;;;;;4.03;0.80;;;;;;;;;;5011016;28;20270;-63
2022/06/21 12:40:16;;;;;;;3.75;0.88;;;;;;;;;;5009557;28;20232;-64
2022/06/21 12:42:43;;;;;;;3.80;1.13;;;;;;;;;;5011326;28;20212;-64
2022/06/21 12:45:26;;;;;;;3.65;0.90;;;;;;;;;;4993040;28;20245;-64
2022/06/21 12:48:11;;;;;;;3.00;0.80;;;;;;;;;;4991893;28;20213;-63
2022/06/21 12:50:36;;;;;;;6.60;0.90;;;;;;;;;;4995927;28;20698;-63
2022/06/21 12:53:01;;;;;;;3.55;0.75;;;;;;;;;;4991350;28;20303;-63
2022/06/21 12:55:27;;;;;;;2.53;0.93;;;;;;;;;;4991869;28;20216;-64
2022/06/21 12:58:16;;;;;;;4.97;0.90;;;;;;;;;;4991132;28;20220;-64
2022/06/21 13:00:41;;;;;;;3.13;0.75;;;;;;;;;;4997355;28;20229;-63
2022/06/21 13:03:25;;;;;;;6.63;1.23;;;;;;;;;;4990877;28;20236;-63
2022/06/21 13:06:04;;;;;;;3.22;0.82;;;;;;;;;;4991037;28;20220;-63
2022/06/21 13:08:35;;;;;;;3.30;0.85;;;;;;;;;;4997896;28;20736;-63
2022/06/21 13:11:19;;;;;;;5.30;1.00;;;;;;;;;;4991959;28;20576;-63
2022/06/21 13:13:52;;;;;;;4.65;0.98;;;;;;;;;;4979853;28;20210;-63
2022/06/21 13:16:27;;;;;;;3.45;0.80;;;;;;;;;;4970412;28;20210;-63
2022/06/21 13:19:08;;;;;;;2.22;0.80;;;;;;;;;;4971643;28;20300;-63
2022/06/21 13:21:36;;;;;;;3.33;1.10;;;;;;;;;;4970679;28;20287;-63
2022/06/21 13:24:13;;;;;;;5.13;1.20;;;;;;;;;;4970303;28;20733;-63
2022/06/21 13:26:53;;;;;;;5.35;0.90;;;;;;;;;;4970084;28;20305;-64
2022/06/21 13:29:25;;;;;;;4.10;0.85;;;;;;;;;;4972809;28;20201;-64
2022/06/21 13:31:53;;;;;;;3.42;0.90;;;;;;;;;;4990131;28;20216;-64
2022/06/21 13:34:21;;;;;;;5.75;1.10;;;;;;;;;;4993793;28;20213;-64
2022/06/21 13:36:47;;;;;;;4.38;0.80;;;;;;;;;;4993615;28;20233;-64
2022/06/21 13:39:16;;;;;;;5.05;1.00;;;;;;;;;;4994383;28;20711;-63
2022/06/21 13:44:45;;;;;;;3.78;0.85;;;;;;;;;;4994271;28;20295;-64
2022/06/21 13:47:19;;;;;;;4.18;1.00;;;;;;;;;;4992119;28;20217;-63
2022/06/21 13:49:46;;;;;;;5.45;1.10;;;;;;;;;;4993548;28;20224;-64
2022/06/21 13:52:18;;;;;;;3.33;0.90;;;;;;;;;;4993198;28;20217;-63
2022/06/21 13:54:56;;;;;;;4.45;0.85;;;;;;;;;;4992887;28;20213;-63
2022/06/21 13:57:36;;;;;;;5.55;0.85;;;;;;;;;;4992834;28;20220;-64
2022/06/21 14:00:01;;;;;;;2.97;0.80;;;;;;;;;;4992577;28;20763;-63
2022/06/21 14:02:30;;;;;;;2.70;0.75;;;;;;;;;;4993796;28;20320;-63
2022/06/21 14:04:56;;;;;;;3.40;0.77;;;;;;;;;;4993594;28;20209;-64
2022/06/21 14:07:39;;;;;;;2.30;0.85;;;;;;;;;;4994320;28;20219;-64
2022/06/21 14:10:04;;;;;;;5.43;0.70;;;;;;;;;;4993858;28;20227;-63
2022/06/21 14:12:34;;;;;;;4.35;0.90;;;;;;;;;;4998383;28;20216;-63
2022/06/21 14:15:02;;;;;;;2.95;0.70;;;;;;;;;;4997358;28;20217;-63
2022/06/21 14:17:36;;;;;;;1.88;0.73;;;;;;;;;;5010634;28;20244;-63
2022/06/21 14:20:02;;;;;;;3.20;0.90;;;;;;;;;;5013157;28;20647;-62
2022/06/21 14:22:34;;;;;;;3.53;0.77;;;;;;;;;;5011624;28;20247;-62
2022/06/21 14:25:04;;;;;;;1.95;0.65;;;;;;;;;;5000844;28;20227;-62
2022/06/21 14:27:49;;;;;;;4.72;0.82;;;;;;;;;;5002243;28;20216;-62
2022/06/21 14:30:18;;;;;;;4.93;0.82;;;;;;;;;;5011830;28;20263;-62
2022/06/21 14:32:47;;;;;;;4.82;1.00;;;;;;;;;;4998227;28;20213;-62
2022/06/21 14:35:16;;;;;;;4.15;0.80;;;;;;;;;;4991959;28;20219;-63
2022/06/21 14:37:41;;;;;;;3.92;0.90;;;;;;;;;;4993003;28;20677;-63
2022/06/21 14:40:09;;;;;;;3.33;0.82;;;;;;;;;;4992957;28;20236;-63
2022/06/21 14:42:38;;;;;;;4.18;0.80;;;;;;;;;;4993093;28;20636;-63
2022/06/21 14:45:06;;;;;;;4.60;0.90;;;;;;;;;;5009127;28;20217;-62
2022/06/21 14:47:33;;;;;;;4.85;0.90;;;;;;;;;;5013082;28;20695;-63
2022/06/21 14:50:10;;;;;;;2.50;0.80;;;;;;;;;;5011014;28;20691;-63
2022/06/21 14:52:43;;;;;;;4.07;0.90;;;;;;;;;;5011790;28;20270;-63
2022/06/21 14:55:11;;;;;;;3.65;0.80;;;;;;;;;;5011762;28;20729;-63
2022/06/21 14:57:40;;;;;;;3.08;0.80;;;;;;;;;;5003519;28;20355;-63
2022/06/21 15:00:05;;;;;;;3.83;1.10;;;;;;;;;;4994228;28;20233;-63
2022/06/21 15:02:36;;;;;;;2.58;0.90;;;;;;;;;;4997407;28;22692;-63
2022/06/21 15:05:01;;;;;;;2.45;0.98;;;;;;;;;;5006030;28;20222;-63
2022/06/21 15:07:31;;;;;;;3.63;0.80;;;;;;;;;;4988629;28;20205;-63
2022/06/21 15:09:58;;;;;;;2.97;0.70;;;;;;;;;;4987150;28;20216;-63
2022/06/21 15:12:24;;;;;;;2.58;0.80;;;;;;;;;;4998757;28;20692;-61
2022/06/21 15:14:52;;;;;;;3.67;0.80;;;;;;;;;;4988070;28;20271;-61